sensor_id;sensor_type;location;lat;lon;timestamp;pressure;altitude;pressure_sealevel;temperature;humidity
13068;BME280;6600;51.362;6.686;2023-05-10T00:02:18;100392.88;;;14.54;100.00
13068;BME280;6600;51.362;6.686;2023-05-10T00:04:43;100393.75;;;14.59;100.00
13068;BME280;6600;51.362;6.686;2023-05-10T00:07:08;100385.13;;;14.57;100.00
13068;BME280;6600;51.362;6.686;2023-05-10T00:09:35;100381.84;;;14.55;100.00
13068;BME280;6600;51.362;6.686;2023-05-10T00:12:00;100397.38;;;14.48;100.00
13068;BME280;6600;51.362;6.686;2023-05-10T00:14:26;100392.50;;;14.45;100.00
13068;BME280;6600;51.362;6.686;2023-05-10T00:16:51;100389.75;;;14.40;100.00
13068;BME280;6600;51.362;6.686;2023-05-10T00:19:16;100393.00;;;14.42;100.00
13068;BME280;6600;51.362;6.686;2023-05-10T00:21:42;100400.53;;;14.40;100.00
13068;BME280;6600;51.362;6.686;2023-05-10T00:24:07;100388.09;;;14.39;100.00
13068;BME280;6600;51.362;6.686;2023-05-10T00:26:32;100393.50;;;14.39;100.00
13068;BME280;6600;51.362;6.686;2023-05-10T00:28:58;100391.84;;;14.38;100.00
13068;BME280;6600;51.362;6.686;2023-05-10T00:31:23;100398.56;;;14.36;100.00
13068;BME280;6600;51.362;6.686;2023-05-10T00:33:49;100394.81;;;14.37;100.00
13068;BME280;6600;51.362;6.686;2023-05-10T00:36:14;100398.19;;;14.32;100.00
13068;BME280;6600;51.362;6.686;2023-05-10T00:38:39;100398.69;;;14.29;100.00
13068;BME280;6600;51.362;6.686;2023-05-10T00:41:05;100398.88;;;14.23;100.00
13068;BME280;6600;51.362;6.686;2023-05-10T00:43:30;100386.78;;;14.25;100.00
13068;BME280;6600;51.362;6.686;2023-05-10T00:45:56;100387.28;;;14.22;100.00
13068;BME280;6600;51.362;6.686;2023-05-10T00:48:21;100386.78;;;14.25;100.00
13068;BME280;6600;51.362;6.686;2023-05-10T00:50:47;100392.44;;;14.24;100.00
13068;BME280;6600;51.362;6.686;2023-05-10T00:53:14;100393.16;;;14.19;100.00
13068;BME280;6600;51.362;6.686;2023-05-10T00:58:09;100394.16;;;14.13;100.00
13068;BME280;6600;51.362;6.686;2023-05-10T01:00:35;100403.78;;;14.09;100.00
13068;BME280;6600;51.362;6.686;2023-05-10T01:03:02;100403.19;;;14.07;100.00
13068;BME280;6600;51.362;6.686;2023-05-10T01:05:27;100408.13;;;14.10;100.00
13068;BME280;6600;51.362;6.686;2023-05-10T01:07:53;100407.03;;;14.11;100.00
13068;BME280;6600;51.362;6.686;2023-05-10T01:10:18;100404.84;;;14.08;100.00
13068;BME280;6600;51.362;6.686;2023-05-10T01:12:45;100405.91;;;14.07;100.00
13068;BME280;6600;51.362;6.686;2023-05-10T01:15:12;100399.22;;;14.09;100.00
13068;BME280;6600;51.362;6.686;2023-05-10T01:17:39;100399.56;;;14.13;100.00
13068;BME280;6600;51.362;6.686;2023-05-10T01:20:07;100395.28;;;14.17;100.00
13068;BME280;6600;51.362;6.686;2023-05-10T01:30:39;100407.03;;;14.11;100.00
13068;BME280;6600;51.362;6.686;2023-05-10T01:33:29;100407.63;;;14.13;100.00
13068;BME280;6600;51.362;6.686;2023-05-10T01:38:47;100401.66;;;14.11;100.00
13068;BME280;6600;51.362;6.686;2023-05-10T01:46:39;100415.72;;;14.13;100.00
13068;BME280;6600;51.362;6.686;2023-05-10T01:49:10;100410.22;;;14.08;100.00
13068;BME280;6600;51.362;6.686;2023-05-10T01:52:00;100412.59;;;14.04;100.00
13068;BME280;6600;51.362;6.686;2023-05-10T01:54:29;100412.28;;;14.01;100.00
13068;BME280;6600;51.362;6.686;2023-05-10T01:57:00;100411.72;;;13.99;100.00
13068;BME280;6600;51.362;6.686;2023-05-10T01:59:31;100418.16;;;13.98;100.00
13068;BME280;6600;51.362;6.686;2023-05-10T02:02:01;100406.56;;;13.97;100.00
13068;BME280;6600;51.362;6.686;2023-05-10T02:04:28;100405.25;;;14.00;100.00
13068;BME280;6600;51.362;6.686;2023-05-10T02:06:54;100401.50;;;14.01;100.00
13068;BME280;6600;51.362;6.686;2023-05-10T02:09:21;100408.53;;;14.02;100.00
13068;BME280;6600;51.362;6.686;2023-05-10T02:11:48;100408.25;;;14.03;100.00
13068;BME280;6600;51.362;6.686;2023-05-10T02:14:14;100412.88;;;14.03;100.00
13068;BME280;6600;51.362;6.686;2023-05-10T02:16:41;100408.03;;;14.05;100.00
13068;BME280;6600;51.362;6.686;2023-05-10T02:19:07;100414.47;;;14.04;100.00
13068;BME280;6600;51.362;6.686;2023-05-10T02:21:35;100412.88;;;14.03;100.00
13068;BME280;6600;51.362;6.686;2023-05-10T02:24:02;100415.56;;;14.03;100.00
13068;BME280;6600;51.362;6.686;2023-05-10T02:26:29;100421.50;;;14.05;100.00
13068;BME280;6600;51.362;6.686;2023-05-10T02:28:56;100427.44;;;14.07;100.00
13068;BME280;6600;51.362;6.686;2023-05-10T02:31:23;100424.19;;;14.05;100.00
13068;BME280;6600;51.362;6.686;2023-05-10T02:33:48;100430.16;;;14.07;100.00
13068;BME280;6600;51.362;6.686;2023-05-10T02:36:15;100428.59;;;14.11;100.00
13068;BME280;6600;51.362;6.686;2023-05-10T02:38:40;100423.53;;;14.14;100.00
13068;BME280;6600;51.362;6.686;2023-05-10T02:41:07;100429.41;;;14.11;100.00
13068;BME280;6600;51.362;6.686;2023-05-10T02:43:33;100424.84;;;14.12;100.00
13068;BME280;6600;51.362;6.686;2023-05-10T02:46:00;100427.00;;;14.10;100.00
13068;BME280;6600;51.362;6.686;2023-05-10T02:48:26;100430.25;;;14.12;100.00
13068;BME280;6600;51.362;6.686;2023-05-10T02:50:53;100424.84;;;14.12;100.00
13068;BME280;6600;51.362;6.686;2023-05-10T02:53:23;100429.97;;;14.13;100.00
13068;BME280;6600;51.362;6.686;2023-05-10T02:55:57;100425.41;;;14.14;100.00
13068;BME280;6600;51.362;6.686;2023-05-10T02:58:23;100424.84;;;14.12;100.00
13068;BME280;6600;51.362;6.686;2023-05-10T03:00:49;100429.41;;;14.11;100.00
13068;BME280;6600;51.362;6.686;2023-05-10T03:03:14;100426.81;;;14.16;100.00
13068;BME280;6600;51.362;6.686;2023-05-10T03:05:40;100425.72;;;14.17;100.00
13068;BME280;6600;51.362;6.686;2023-05-10T03:08:05;100424.44;;;14.20;100.00
13068;BME280;6600;51.362;6.686;2023-05-10T03:10:32;100426.06;;;14.21;100.00
13068;BME280;6600;51.362;6.686;2023-05-10T03:13:32;100436.34;;;14.24;100.00
13068;BME280;6600;51.362;6.686;2023-05-10T03:16:08;100437.44;;;14.23;100.00
13068;BME280;6600;51.362;6.686;2023-05-10T03:18:48;100435.78;;;14.22;100.00
13068;BME280;6600;51.362;6.686;2023-05-10T03:21:17;100439.31;;;14.23;100.00
13068;BME280;6600;51.362;6.686;2023-05-10T03:23:59;100439.84;;;14.25;100.00
13068;BME280;6600;51.362;6.686;2023-05-10T03:26:27;100437.44;;;14.23;100.00
13068;BME280;6600;51.362;6.686;2023-05-10T03:28:53;100438.72;;;14.21;100.00
13068;BME280;6600;51.362;6.686;2023-05-10T03:31:18;100435.22;;;14.20;100.00
13068;BME280;6600;51.362;6.686;2023-05-10T03:33:51;100441.72;;;14.24;100.00
13068;BME280;6600;51.362;6.686;2023-05-10T03:36:17;100451.94;;;14.22;100.00
13068;BME280;6600;51.362;6.686;2023-05-10T03:38:43;100447.28;;;14.17;100.00
13068;BME280;6600;51.362;6.686;2023-05-10T03:41:08;100453.59;;;14.23;100.00
13068;BME280;6600;51.362;6.686;2023-05-10T03:43:33;100447.38;;;14.23;100.00
13068;BME280;6600;51.362;6.686;2023-05-10T03:46:01;100450.31;;;14.21;100.00
13068;BME280;6600;51.362;6.686;2023-05-10T03:48:27;100451.13;;;14.22;100.00
13068;BME280;6600;51.362;6.686;2023-05-10T03:50:52;100459.47;;;14.20;100.00
13068;BME280;6600;51.362;6.686;2023-05-10T03:53:17;100454.88;;;14.21;100.00
13068;BME280;6600;51.362;6.686;2023-05-10T03:55:43;100454.41;;;14.24;100.00
13068;BME280;6600;51.362;6.686;2023-05-10T03:58:10;100459.00;;;14.23;100.00
13068;BME280;6600;51.362;6.686;2023-05-10T04:00:36;100456.84;;;14.25;100.00
13068;BME280;6600;51.362;6.686;2023-05-10T04:03:02;100453.81;;;14.22;100.00
13068;BME280;6600;51.362;6.686;2023-05-10T04:05:27;100461.09;;;14.21;100.00
13068;BME280;6600;51.362;6.686;2023-05-10T04:07:52;100464.59;;;14.22;100.00
13068;BME280;6600;51.362;6.686;2023-05-10T04:10:18;100473.50;;;14.22;100.00
13068;BME280;6600;51.362;6.686;2023-05-10T04:12:43;100469.75;;;14.23;100.00
13068;BME280;6600;51.362;6.686;2023-05-10T04:15:09;100474.81;;;14.20;100.00
13068;BME280;6600;51.362;6.686;2023-05-10T04:17:34;100464.88;;;14.20;100.00
13068;BME280;6600;51.362;6.686;2023-05-10T04:19:59;100465.44;;;14.22;100.00
13068;BME280;6600;51.362;6.686;2023-05-10T04:22:25;100468.69;;;14.24;100.00
13068;BME280;6600;51.362;6.686;2023-05-10T04:24:50;100468.69;;;14.24;100.00
13068;BME280;6600;51.362;6.686;2023-05-10T04:27:15;100469.28;;;14.26;100.00
13068;BME280;6600;51.362;6.686;2023-05-10T04:29:41;100459.31;;;14.27;100.00
13068;BME280;6600;51.362;6.686;2023-05-10T04:32:07;100465.53;;;14.27;100.00
13068;BME280;6600;51.362;6.686;2023-05-10T04:34:32;100466.31;;;14.28;100.00
13068;BME280;6600;51.362;6.686;2023-05-10T04:36:59;100472.19;;;14.25;100.00
13068;BME280;6600;51.362;6.686;2023-05-10T04:39:24;100469.75;;;14.23;100.00
13068;BME280;6600;51.362;6.686;2023-05-10T04:41:49;100471.38;;;14.24;100.00
13068;BME280;6600;51.362;6.686;2023-05-10T04:44:15;100478.25;;;14.15;100.00
13068;BME280;6600;51.362;6.686;2023-05-10T04:46:40;100466.97;;;14.18;100.00
13068;BME280;6600;51.362;6.686;2023-05-10T04:49:05;100470.81;;;14.22;100.00
13068;BME280;6600;51.362;6.686;2023-05-10T04:51:31;100474.06;;;14.24;100.00
13068;BME280;6600;51.362;6.686;2023-05-10T04:53:57;100474.66;;;14.26;100.00
13068;BME280;6600;51.362;6.686;2023-05-10T04:56:22;100471.25;;;14.31;100.00
13068;BME280;6600;51.362;6.686;2023-05-10T04:58:47;100467.47;;;14.32;100.00
13068;BME280;6600;51.362;6.686;2023-05-10T05:01:13;100484.00;;;14.35;100.00
13068;BME280;6600;51.362;6.686;2023-05-10T05:03:38;100487.75;;;14.34;100.00
13068;BME280;6600;51.362;6.686;2023-05-10T05:06:04;100490.53;;;14.39;100.00
13068;BME280;6600;51.362;6.686;2023-05-10T05:08:30;100484.44;;;14.32;100.00
13068;BME280;6600;51.362;6.686;2023-05-10T05:10:55;100484.00;;;14.35;100.00
13068;BME280;6600;51.362;6.686;2023-05-10T05:13:21;100490.53;;;14.39;100.00
13068;BME280;6600;51.362;6.686;2023-05-10T05:15:46;100497.22;;;14.37;100.00
13068;BME280;6600;51.362;6.686;2023-05-10T05:18:11;100503.00;;;14.45;100.00
13068;BME280;6600;51.362;6.686;2023-05-10T05:20:37;100507.91;;;14.48;100.00
13068;BME280;6600;51.362;6.686;2023-05-10T05:23:02;100501.47;;;14.49;100.00
13068;BME280;6600;51.362;6.686;2023-05-10T05:25:28;100501.22;;;14.51;100.00
13068;BME280;6600;51.362;6.686;2023-05-10T05:27:53;100504.44;;;14.48;100.00
13068;BME280;6600;51.362;6.686;2023-05-10T05:30:18;100510.16;;;14.51;100.00
13068;BME280;6600;51.362;6.686;2023-05-10T05:32:44;100503.09;;;14.50;100.00
13068;BME280;6600;51.362;6.686;2023-05-10T05:35:09;100515.03;;;14.54;100.00
13068;BME280;6600;51.362;6.686;2023-05-10T05:37:35;100510.59;;;14.48;100.00
13068;BME280;6600;51.362;6.686;2023-05-10T05:40:00;100524.19;;;14.53;100.00
13068;BME280;6600;51.362;6.686;2023-05-10T05:42:27;100512.56;;;14.53;100.00
13068;BME280;6600;51.362;6.686;2023-05-10T05:44:52;100518.13;;;14.46;100.00
13068;BME280;6600;51.362;6.686;2023-05-10T05:47:17;100533.25;;;14.47;100.00
13068;BME280;6600;51.362;6.686;2023-05-10T05:49:43;100526.31;;;14.51;100.00
13068;BME280;6600;51.362;6.686;2023-05-10T05:52:10;100533.16;;;14.42;100.00
13068;BME280;6600;51.362;6.686;2023-05-10T05:54:36;100533.81;;;14.49;100.00
13068;BME280;6600;51.362;6.686;2023-05-10T05:57:01;100533.25;;;14.47;100.00
13068;BME280;6600;51.362;6.686;2023-05-10T05:59:27;100538.38;;;14.49;100.00
13068;BME280;6600;51.362;6.686;2023-05-10T06:01:52;100538.72;;;14.52;100.00
13068;BME280;6600;51.362;6.686;2023-05-10T06:04:18;100548.34;;;14.48;100.00
13068;BME280;6600;51.362;6.686;2023-05-10T06:06:43;100550.00;;;14.49;100.00
13068;BME280;6600;51.362;6.686;2023-05-10T06:09:09;100554.22;;;14.45;100.00
13068;BME280;6600;51.362;6.686;2023-05-10T06:11:35;100548.84;;;14.45;100.00
13068;BME280;6600;51.362;6.686;2023-05-10T06:14:01;100547.56;;;14.48;100.00
13068;BME280;6600;51.362;6.686;2023-05-10T06:16:27;100558.16;;;14.38;100.00
13068;BME280;6600;51.362;6.686;2023-05-10T06:18:52;100550.97;;;14.43;100.00
13068;BME280;6600;51.362;6.686;2023-05-10T06:21:18;100555.16;;;14.51;100.00
13068;BME280;6600;51.362;6.686;2023-05-10T06:23:43;100557.69;;;14.57;100.00
13068;BME280;6600;51.362;6.686;2023-05-10T06:26:09;100559.31;;;14.58;100.00
13068;BME280;6600;51.362;6.686;2023-05-10T06:28:34;100564.22;;;14.61;100.00
13068;BME280;6600;51.362;6.686;2023-05-10T06:31:00;100564.56;;;14.65;100.00
13068;BME280;6600;51.362;6.686;2023-05-10T06:33:25;100559.56;;;14.74;100.00
13068;BME280;6600;51.362;6.686;2023-05-10T06:35:51;100568.28;;;14.81;100.00
13068;BME280;6600;51.362;6.686;2023-05-10T06:38:16;100561.91;;;14.87;100.00
13068;BME280;6600;51.362;6.686;2023-05-10T06:40:42;100571.06;;;14.86;100.00
13068;BME280;6600;51.362;6.686;2023-05-10T06:43:09;100566.16;;;14.83;100.00
13068;BME280;6600;51.362;6.686;2023-05-10T06:45:35;100576.47;;;14.86;100.00
13068;BME280;6600;51.362;6.686;2023-05-10T06:48:00;100574.00;;;14.84;100.00
13068;BME280;6600;51.362;6.686;2023-05-10T06:50:26;100577.09;;;14.93;100.00
13068;BME280;6600;51.362;6.686;2023-05-10T06:52:51;100570.91;;;14.92;100.00
13068;BME280;6600;51.362;6.686;2023-05-10T06:55:17;100573.34;;;14.94;100.00
13068;BME280;6600;51.362;6.686;2023-05-10T06:57:42;100579.72;;;14.88;100.00
13068;BME280;6600;51.362;6.686;2023-05-10T07:00:08;100575.97;;;14.89;100.00
13068;BME280;6600;51.362;6.686;2023-05-10T07:02:35;100588.88;;;14.87;100.00
13068;BME280;6600;51.362;6.686;2023-05-10T07:05:00;100585.84;;;14.83;100.00
13068;BME280;6600;51.362;6.686;2023-05-10T07:07:26;100595.25;;;14.81;100.00
13068;BME280;6600;51.362;6.686;2023-05-10T07:09:51;100594.78;;;14.84;100.00
13068;BME280;6600;51.362;6.686;2023-05-10T07:12:17;100592.66;;;14.86;100.00
13068;BME280;6600;51.362;6.686;2023-05-10T07:14:42;100593.94;;;14.83;100.00
13068;BME280;6600;51.362;6.686;2023-05-10T07:17:07;100594.28;;;14.87;100.00
13068;BME280;6600;51.362;6.686;2023-05-10T07:19:33;100598.69;;;14.93;100.00
13068;BME280;6600;51.362;6.686;2023-05-10T07:21:58;100590.00;;;15.07;100.00
13068;BME280;6600;51.362;6.686;2023-05-10T07:24:24;100584.25;;;15.21;100.00
13068;BME280;6600;51.362;6.686;2023-05-10T07:26:49;100587.09;;;15.31;100.00
13068;BME280;6600;51.362;6.686;2023-05-10T07:29:15;100581.06;;;15.45;100.00
13068;BME280;6600;51.362;6.686;2023-05-10T07:31:40;100590.41;;;15.54;100.00
13068;BME280;6600;51.362;6.686;2023-05-10T07:34:07;100584.00;;;15.60;100.00
13068;BME280;6600;51.362;6.686;2023-05-10T07:36:33;100590.47;;;15.59;100.00
13068;BME280;6600;51.362;6.686;2023-05-10T07:38:58;100582.47;;;15.70;100.00
13068;BME280;6600;51.362;6.686;2023-05-10T07:41:24;100585.38;;;15.85;100.00
13068;BME280;6600;51.362;6.686;2023-05-10T07:43:49;100591.09;;;16.15;100.00
13068;BME280;6600;51.362;6.686;2023-05-10T07:46:14;100593.38;;;16.28;100.00
13068;BME280;6600;51.362;6.686;2023-05-10T07:48:39;100591.28;;;16.35;100.00
13068;BME280;6600;51.362;6.686;2023-05-10T07:51:05;100592.13;;;16.09;100.00
13068;BME280;6600;51.362;6.686;2023-05-10T07:53:32;100609.88;;;16.27;100.00
13068;BME280;6600;51.362;6.686;2023-05-10T07:55:58;100612.00;;;16.51;100.00
13068;BME280;6600;51.362;6.686;2023-05-10T07:58:24;100612.00;;;16.51;100.00
13068;BME280;6600;51.362;6.686;2023-05-10T08:00:49;100610.50;;;16.60;100.00
13068;BME280;6600;51.362;6.686;2023-05-10T08:03:15;100611.84;;;16.58;100.00
13068;BME280;6600;51.362;6.686;2023-05-10T08:05:40;100609.75;;;16.70;100.00
13068;BME280;6600;51.362;6.686;2023-05-10T08:08:06;100616.34;;;16.52;100.00
13068;BME280;6600;51.362;6.686;2023-05-10T08:10:31;100611.63;;;16.64;100.00
13068;BME280;6600;51.362;6.686;2023-05-10T08:12:57;100613.28;;;16.71;100.00
13068;BME280;6600;51.362;6.686;2023-05-10T08:15:23;100614.34;;;16.70;100.00
13068;BME280;6600;51.362;6.686;2023-05-10T08:17:49;100616.22;;;16.69;100.00
13068;BME280;6600;51.362;6.686;2023-05-10T08:20:14;100617.56;;;16.66;100.00
13068;BME280;6600;51.362;6.686;2023-05-10T08:22:42;100619.56;;;16.49;100.00
13068;BME280;6600;51.362;6.686;2023-05-10T08:25:07;100632.06;;;16.55;100.00
13068;BME280;6600;51.362;6.686;2023-05-10T08:27:33;100634.66;;;16.45;100.00
13068;BME280;6600;51.362;6.686;2023-05-10T08:29:58;100633.31;;;15.94;100.00
13068;BME280;6600;51.362;6.686;2023-05-10T08:32:23;100636.31;;;15.98;100.00
13068;BME280;6600;51.362;6.686;2023-05-10T08:34:49;100630.41;;;15.79;100.00
13068;BME280;6600;51.362;6.686;2023-05-10T08:37:14;100632.38;;;15.84;100.00
13068;BME280;6600;51.362;6.686;2023-05-10T08:39:39;100639.53;;;15.95;100.00
13068;BME280;6600;51.362;6.686;2023-05-10T08:42:05;100640.16;;;16.02;100.00
13068;BME280;6600;51.362;6.686;2023-05-10T08:44:32;100638.31;;;16.07;100.00
13068;BME280;6600;51.362;6.686;2023-05-10T08:46:59;100644.63;;;16.13;100.00
13068;BME280;6600;51.362;6.686;2023-05-10T08:49:28;100655.78;;;16.00;100.00
13068;BME280;6600;51.362;6.686;2023-05-10T08:51:57;100657.38;;;15.96;100.00
13068;BME280;6600;51.362;6.686;2023-05-10T08:54:22;100662.91;;;16.06;100.00
13068;BME280;6600;51.362;6.686;2023-05-10T08:56:48;100670.56;;;16.14;100.00
13068;BME280;6600;51.362;6.686;2023-05-10T08:59:14;100671.56;;;16.08;100.00
13068;BME280;6600;51.362;6.686;2023-05-10T09:01:43;100665.78;;;16.21;100.00
13068;BME280;6600;51.362;6.686;2023-05-10T09:04:09;100679.88;;;16.23;100.00
13068;BME280;6600;51.362;6.686;2023-05-10T09:06:35;100666.38;;;16.28;100.00
13068;BME280;6600;51.362;6.686;2023-05-10T09:09:01;100678.78;;;16.24;100.00
13068;BME280;6600;51.362;6.686;2023-05-10T09:11:28;100674.25;;;16.30;100.00
13068;BME280;6600;51.362;6.686;2023-05-10T09:13:55;100679.41;;;16.31;100.00
13068;BME280;6600;51.362;6.686;2023-05-10T09:16:21;100677.78;;;16.30;100.00
13068;BME280;6600;51.362;6.686;2023-05-10T09:18:47;100685.28;;;16.23;99.33
13068;BME280;6600;51.362;6.686;2023-05-10T09:21:13;100678.84;;;16.29;100.00
13068;BME280;6600;51.362;6.686;2023-05-10T09:23:42;100682.31;;;16.25;98.82
13068;BME280;6600;51.362;6.686;2023-05-10T09:26:08;100691.66;;;16.17;99.13
13068;BME280;6600;51.362;6.686;2023-05-10T09:28:34;100690.41;;;16.25;98.61
13068;BME280;6600;51.362;6.686;2023-05-10T09:30:59;100695.19;;;16.39;99.53
13068;BME280;6600;51.362;6.686;2023-05-10T09:33:25;100694.13;;;16.40;98.51
13068;BME280;6600;51.362;6.686;2023-05-10T09:35:51;100690.00;;;16.59;98.62
13068;BME280;6600;51.362;6.686;2023-05-10T09:38:17;100693.09;;;16.68;99.42
13068;BME280;6600;51.362;6.686;2023-05-10T09:40:51;100690.53;;;16.56;97.53
13068;BME280;6600;51.362;6.686;2023-05-10T09:43:19;100697.34;;;16.37;96.26
13068;BME280;6600;51.362;6.686;2023-05-10T09:45:47;100703.47;;;16.54;97.03
13068;BME280;6600;51.362;6.686;2023-05-10T09:48:13;100702.47;;;16.60;97.98
13068;BME280;6600;51.362;6.686;2023-05-10T09:50:39;100712.94;;;16.79;98.46
13068;BME280;6600;51.362;6.686;2023-05-10T09:53:04;100712.78;;;16.63;96.88
13068;BME280;6600;51.362;6.686;2023-05-10T09:58:01;100708.19;;;16.21;98.11
13068;BME280;6600;51.362;6.686;2023-05-10T10:00:28;100708.78;;;16.01;98.73
13068;BME280;6600;51.362;6.686;2023-05-10T10:02:57;100716.34;;;15.99;99.72
13068;BME280;6600;51.362;6.686;2023-05-10T10:05:33;100717.63;;;15.75;100.00
13068;BME280;6600;51.362;6.686;2023-05-10T10:08:01;100712.91;;;15.87;100.00
13068;BME280;6600;51.362;6.686;2023-05-10T10:10:27;100708.84;;;15.84;100.00
13068;BME280;6600;51.362;6.686;2023-05-10T10:12:54;100722.53;;;15.78;100.00
13068;BME280;6600;51.362;6.686;2023-05-10T10:15:23;100721.84;;;15.87;100.00
13068;BME280;6600;51.362;6.686;2023-05-10T10:17:49;100721.78;;;16.04;100.00
13068;BME280;6600;51.362;6.686;2023-05-10T10:20:16;100720.09;;;15.98;99.78
13068;BME280;6600;51.362;6.686;2023-05-10T10:22:42;100713.06;;;15.97;99.41
13068;BME280;6600;51.362;6.686;2023-05-10T10:25:10;100722.72;;;15.93;98.85
13068;BME280;6600;51.362;6.686;2023-05-10T10:27:47;100718.59;;;16.07;98.51
13068;BME280;6600;51.362;6.686;2023-05-10T10:35:31;100733.34;;;16.43;97.29
13068;BME280;6600;51.362;6.686;2023-05-10T10:37:57;100733.25;;;16.33;97.36
13068;BME280;6600;51.362;6.686;2023-05-10T10:42:51;100727.16;;;15.99;96.45
13068;BME280;6600;51.362;6.686;2023-05-10T10:45:17;100727.81;;;16.11;97.59
13068;BME280;6600;51.362;6.686;2023-05-10T10:47:43;100732.72;;;16.14;98.13
13068;BME280;6600;51.362;6.686;2023-05-10T10:50:10;100733.69;;;16.03;97.89
13068;BME280;6600;51.362;6.686;2023-05-10T10:57:46;100742.34;;;16.05;97.43
13068;BME280;6600;51.362;6.686;2023-05-10T11:00:19;100735.50;;;16.19;98.36
13068;BME280;6600;51.362;6.686;2023-05-10T11:07:59;100743.09;;;16.65;97.73
13068;BME280;6600;51.362;6.686;2023-05-10T11:10:26;100743.81;;;16.56;96.17
13068;BME280;6600;51.362;6.686;2023-05-10T11:12:53;100741.69;;;16.85;96.07
13068;BME280;6600;51.362;6.686;2023-05-10T11:15:36;100740.31;;;17.14;96.62
13068;BME280;6600;51.362;6.686;2023-05-10T11:18:21;100746.53;;;17.14;95.44
13068;BME280;6600;51.362;6.686;2023-05-10T11:21:09;100743.66;;;17.26;95.09
13068;BME280;6600;51.362;6.686;2023-05-10T11:23:55;100752.56;;;17.22;93.33
13068;BME280;6600;51.362;6.686;2023-05-10T11:26:25;100750.22;;;17.03;93.21
13068;BME280;6600;51.362;6.686;2023-05-10T11:28:53;100756.06;;;16.90;94.19
13068;BME280;6600;51.362;6.686;2023-05-10T11:31:20;100754.16;;;16.86;94.07
13068;BME280;6600;51.362;6.686;2023-05-10T11:33:48;100761.06;;;16.77;94.58
13068;BME280;6600;51.362;6.686;2023-05-10T11:36:18;100758.94;;;16.79;94.91
13068;BME280;6600;51.362;6.686;2023-05-10T11:38:45;100754.41;;;16.62;95.25
13068;BME280;6600;51.362;6.686;2023-05-10T11:41:11;100763.06;;;16.59;95.82
13068;BME280;6600;51.362;6.686;2023-05-10T11:43:39;100764.28;;;16.52;95.08
13068;BME280;6600;51.362;6.686;2023-05-10T11:46:12;100771.78;;;16.66;95.92
13068;BME280;6600;51.362;6.686;2023-05-10T11:48:42;100775.06;;;16.69;95.61
13068;BME280;6600;51.362;6.686;2023-05-10T11:51:08;100756.06;;;16.63;95.06
13068;BME280;6600;51.362;6.686;2023-05-10T11:53:34;100772.59;;;16.67;94.86
13068;BME280;6600;51.362;6.686;2023-05-10T11:56:07;100771.28;;;16.70;94.93
13068;BME280;6600;51.362;6.686;2023-05-10T11:58:32;100768.44;;;16.81;94.25
13068;BME280;6600;51.362;6.686;2023-05-10T12:01:01;100765.97;;;16.80;94.39
13068;BME280;6600;51.362;6.686;2023-05-10T12:03:28;100766.13;;;16.95;93.49
13068;BME280;6600;51.362;6.686;2023-05-10T12:05:54;100767.59;;;17.07;92.83
13068;BME280;6600;51.362;6.686;2023-05-10T12:08:22;100768.59;;;17.28;92.86
13068;BME280;6600;51.362;6.686;2023-05-10T12:10:47;100764.81;;;17.29;92.35
13068;BME280;6600;51.362;6.686;2023-05-10T12:13:16;100771.38;;;17.38;91.62
13068;BME280;6600;51.362;6.686;2023-05-10T12:15:43;100763.31;;;17.48;91.56
13068;BME280;6600;51.362;6.686;2023-05-10T12:18:14;100764.03;;;17.65;90.86
13068;BME280;6600;51.362;6.686;2023-05-10T12:20:40;100766.78;;;17.71;90.16
13068;BME280;6600;51.362;6.686;2023-05-10T12:23:09;100765.25;;;17.90;89.68
13068;BME280;6600;51.362;6.686;2023-05-10T12:25:36;100764.88;;;18.13;89.60
13068;BME280;6600;51.362;6.686;2023-05-10T12:28:04;100759.44;;;18.18;89.04
13068;BME280;6600;51.362;6.686;2023-05-10T12:30:32;100755.38;;;18.21;88.34
13068;BME280;6600;51.362;6.686;2023-05-10T12:33:09;100753.88;;;17.93;87.48
13068;BME280;6600;51.362;6.686;2023-05-10T12:35:44;100753.00;;;18.29;89.62
13068;BME280;6600;51.362;6.686;2023-05-10T12:38:32;100756.56;;;18.40;87.89
13068;BME280;6600;51.362;6.686;2023-05-10T12:40:59;100766.47;;;18.71;87.95
13068;BME280;6600;51.362;6.686;2023-05-10T12:43:25;100763.75;;;18.86;86.35
13068;BME280;6600;51.362;6.686;2023-05-10T12:45:51;100764.06;;;19.05;86.64
13068;BME280;6600;51.362;6.686;2023-05-10T12:48:16;100765.16;;;19.04;85.22
13068;BME280;6600;51.362;6.686;2023-05-10T12:50:42;100764.88;;;19.21;86.61
13068;BME280;6600;51.362;6.686;2023-05-10T12:53:07;100765.16;;;18.99;82.20
13068;BME280;6600;51.362;6.686;2023-05-10T12:55:38;100764.88;;;18.85;82.73
13068;BME280;6600;51.362;6.686;2023-05-10T12:58:03;100773.84;;;18.86;84.91
13068;BME280;6600;51.362;6.686;2023-05-10T13:00:29;100766.78;;;19.15;83.84
13068;BME280;6600;51.362;6.686;2023-05-10T13:02:54;100770.28;;;18.90;81.10
13068;BME280;6600;51.362;6.686;2023-05-10T13:05:20;100767.59;;;19.05;80.61
13068;BME280;6600;51.362;6.686;2023-05-10T13:07:45;100773.31;;;19.09;81.16
13068;BME280;6600;51.362;6.686;2023-05-10T13:10:10;100769.25;;;19.11;81.70
13068;BME280;6600;51.362;6.686;2023-05-10T13:12:36;100775.19;;;19.13;81.56
13068;BME280;6600;51.362;6.686;2023-05-10T13:15:02;100774.97;;;19.20;82.06
13068;BME280;6600;51.362;6.686;2023-05-10T13:17:28;100779.84;;;19.23;82.02
13068;BME280;6600;51.362;6.686;2023-05-10T13:19:54;100774.41;;;19.13;83.53
13068;BME280;6600;51.362;6.686;2023-05-10T13:22:19;100778.22;;;19.22;83.89
13068;BME280;6600;51.362;6.686;2023-05-10T13:24:44;100778.22;;;19.27;82.16
13068;BME280;6600;51.362;6.686;2023-05-10T13:27:10;100784.19;;;19.29;80.78
13068;BME280;6600;51.362;6.686;2023-05-10T13:29:35;100780.94;;;19.37;80.89
13068;BME280;6600;51.362;6.686;2023-05-10T13:32:01;100776.88;;;19.45;81.52